Time;durP1;ratioP1;P1;durP2;ratioP2;P2;SDS_P1;SDS_P2;PMS_P1;PMS_P2;Temp;Humidity;BMP_temperature;BMP_pressure;BME280_temperature;BME280_humidity;BME280_pressure;Samples;Min_cycle;Max_cycle;Signal;HPM_P1;HPM_P2
2021/01/03 00:02:18;;;;;;;34.13;13.80;;;;;;;;;;5072761;28;20425;-73
2021/01/03 00:04:44;;;;;;;32.77;13.40;;;;;;;;;;5074670;28;20496;-73
2021/01/03 00:07:10;;;;;;;38.60;13.37;;;;;;;;;;5090344;28;20431;-73
2021/01/03 00:09:36;;;;;;;34.47;15.27;;;;;;;;;;5094958;28;20400;-73
2021/01/03 00:12:02;;;;;;;29.00;13.43;;;;;;;;;;5092943;28;20424;-73
2021/01/03 00:14:30;;;;;;;30.20;14.20;;;;;;;;;;5094756;28;20485;-73
2021/01/03 00:16:58;;;;;;;28.83;15.17;;;;;;;;;;5092800;28;20432;-73
2021/01/03 00:19:24;;;;;;;32.50;12.90;;;;;;;;;;5091447;28;20452;-73
2021/01/03 00:21:50;;;;;;;30.93;14.33;;;;;;;;;;5092689;28;20428;-73
2021/01/03 00:24:16;;;;;;;27.70;13.20;;;;;;;;;;5094377;28;20451;-73
2021/01/03 00:26:42;;;;;;;34.33;13.27;;;;;;;;;;5091594;28;21034;-73
2021/01/03 00:29:08;;;;;;;36.50;13.57;;;;;;;;;;5088931;28;20430;-73
2021/01/03 00:31:37;;;;;;;33.50;12.87;;;;;;;;;;5083335;28;20424;-73
2021/01/03 00:34:03;;;;;;;28.20;11.50;;;;;;;;;;5093059;28;20523;-73
2021/01/03 00:36:29;;;;;;;36.40;14.30;;;;;;;;;;5092190;28;20443;-73
2021/01/03 00:38:55;;;;;;;32.70;12.57;;;;;;;;;;5093930;28;20400;-73
2021/01/03 00:41:21;;;;;;;34.33;13.20;;;;;;;;;;5091901;28;20850;-73
2021/01/03 00:43:47;;;;;;;30.60;13.30;;;;;;;;;;5094288;28;20518;-73
2021/01/03 00:46:13;;;;;;;35.00;12.37;;;;;;;;;;5092265;28;20495;-73
2021/01/03 00:48:39;;;;;;;27.20;12.33;;;;;;;;;;5094000;28;20401;-73
2021/01/03 00:51:05;;;;;;;26.33;12.47;;;;;;;;;;5092330;28;20515;-73
2021/01/03 00:53:31;;;;;;;24.70;13.00;;;;;;;;;;5094009;28;20952;-73
2021/01/03 00:55:57;;;;;;;29.93;13.77;;;;;;;;;;5092226;28;20420;-73
2021/01/03 00:58:23;;;;;;;32.77;13.10;;;;;;;;;;5093910;28;20425;-73
2021/01/03 01:00:49;;;;;;;36.83;16.23;;;;;;;;;;5092009;28;20423;-73
2021/01/03 01:03:15;;;;;;;35.50;13.57;;;;;;;;;;5090807;28;20479;-73
2021/01/03 01:05:41;;;;;;;45.33;16.27;;;;;;;;;;5074813;28;20475;-73
2021/01/03 01:08:07;;;;;;;35.67;13.60;;;;;;;;;;5094545;28;20514;-73
2021/01/03 01:10:33;;;;;;;39.87;14.40;;;;;;;;;;5091648;28;20491;-73
2021/01/03 01:13:00;;;;;;;31.23;14.23;;;;;;;;;;5093605;28;20408;-73
2021/01/03 01:15:28;;;;;;;32.40;13.40;;;;;;;;;;5092009;28;20408;-73
2021/01/03 01:17:55;;;;;;;39.93;14.63;;;;;;;;;;5053625;28;20417;-73
2021/01/03 01:20:22;;;;;;;36.43;13.00;;;;;;;;;;5053301;28;20417;-73
2021/01/03 01:22:48;;;;;;;31.47;12.57;;;;;;;;;;5091694;28;20428;-73
2021/01/03 01:25:17;;;;;;;40.00;15.47;;;;;;;;;;5093605;28;20464;-73
2021/01/03 01:27:43;;;;;;;34.07;14.33;;;;;;;;;;5091426;28;20426;-73
2021/01/03 01:30:10;;;;;;;29.10;12.30;;;;;;;;;;5087974;28;20873;-73
2021/01/03 01:32:36;;;;;;;29.57;12.97;;;;;;;;;;5089140;28;20434;-73
2021/01/03 01:35:03;;;;;;;38.57;13.50;;;;;;;;;;5093530;28;20968;-73
2021/01/03 01:37:29;;;;;;;44.33;15.47;;;;;;;;;;5089307;28;20900;-73
2021/01/03 01:39:55;;;;;;;28.03;14.67;;;;;;;;;;5093265;28;20432;-73
2021/01/03 01:42:22;;;;;;;30.97;14.23;;;;;;;;;;5091461;28;20798;-73
2021/01/03 01:44:48;;;;;;;30.60;13.63;;;;;;;;;;5093297;28;20459;-73
2021/01/03 01:47:20;;;;;;;37.27;13.37;;;;;;;;;;5076556;28;20413;-73
2021/01/03 01:49:46;;;;;;;29.97;11.23;;;;;;;;;;5073065;28;20457;-73
2021/01/03 01:52:13;;;;;;;31.30;14.47;;;;;;;;;;5086582;28;20427;-73
2021/01/03 01:54:41;;;;;;;30.27;12.60;;;;;;;;;;5097134;28;20947;-73
2021/01/03 01:57:07;;;;;;;30.77;13.20;;;;;;;;;;5077102;28;20439;-73
2021/01/03 01:59:44;;;;;;;40.23;13.13;;;;;;;;;;5076948;28;20413;-73
2021/01/03 02:02:15;;;;;;;34.17;13.97;;;;;;;;;;5088399;28;20459;-73
2021/01/03 02:04:44;;;;;;;34.50;14.40;;;;;;;;;;5097085;28;20474;-73
2021/01/03 02:07:27;;;;;;;39.57;14.13;;;;;;;;;;5082905;28;20421;-73
2021/01/03 02:09:53;;;;;;;23.70;11.73;;;;;;;;;;5075457;28;20476;-73
2021/01/03 02:12:31;;;;;;;41.60;12.97;;;;;;;;;;5075878;28;20513;-73
2021/01/03 02:14:57;;;;;;;37.97;15.13;;;;;;;;;;5076668;28;20786;-73
2021/01/03 02:17:23;;;;;;;47.27;14.20;;;;;;;;;;5089439;28;20510;-73
2021/01/03 02:19:50;;;;;;;37.93;13.90;;;;;;;;;;5097209;28;20415;-73
2021/01/03 02:22:16;;;;;;;36.63;14.60;;;;;;;;;;5094866;28;20434;-73
2021/01/03 02:24:45;;;;;;;40.97;14.17;;;;;;;;;;5096768;28;20455;-73
2021/01/03 02:27:16;;;;;;;30.60;12.23;;;;;;;;;;5094816;28;20428;-73
2021/01/03 02:29:43;;;;;;;34.23;12.07;;;;;;;;;;5097382;28;20385;-73
2021/01/03 02:32:10;;;;;;;24.33;13.80;;;;;;;;;;5081350;28;20467;-73
2021/01/03 02:34:37;;;;;;;27.73;13.87;;;;;;;;;;5074278;28;20457;-73
2021/01/03 02:37:08;;;;;;;28.27;12.80;;;;;;;;;;5077619;28;20969;-73
2021/01/03 02:39:50;;;;;;;36.27;13.27;;;;;;;;;;5076350;28;20884;-73
2021/01/03 02:42:16;;;;;;;26.63;13.53;;;;;;;;;;5087033;28;20428;-73
2021/01/03 02:44:42;;;;;;;34.53;14.70;;;;;;;;;;5094260;28;20781;-73
2021/01/03 02:47:09;;;;;;;39.83;13.77;;;;;;;;;;5085640;28;20416;-73
2021/01/03 02:49:35;;;;;;;44.43;13.40;;;;;;;;;;5076141;28;20405;-73
2021/01/03 02:52:02;;;;;;;28.53;12.60;;;;;;;;;;5079322;28;20435;-73
2021/01/03 02:54:28;;;;;;;33.20;11.70;;;;;;;;;;5096251;28;20470;-73
2021/01/03 02:56:54;;;;;;;29.00;11.60;;;;;;;;;;5090255;28;20458;-73
2021/01/03 02:59:20;;;;;;;47.23;15.43;;;;;;;;;;5076216;28;20429;-73
2021/01/03 03:01:46;;;;;;;31.90;11.83;;;;;;;;;;5075378;28;22976;-73
2021/01/03 03:04:12;;;;;;;52.57;15.13;;;;;;;;;;5075171;28;20594;-73
2021/01/03 03:06:38;;;;;;;34.80;13.03;;;;;;;;;;5074759;28;20768;-73
2021/01/03 03:09:05;;;;;;;33.77;13.73;;;;;;;;;;5075804;28;20423;-73
2021/01/03 03:11:31;;;;;;;38.50;14.93;;;;;;;;;;5075418;28;20406;-73
2021/01/03 03:13:57;;;;;;;32.10;14.40;;;;;;;;;;5094878;28;20439;-73
2021/01/03 03:16:23;;;;;;;29.73;13.93;;;;;;;;;;5096317;28;20771;-73
2021/01/03 03:18:49;;;;;;;33.13;14.50;;;;;;;;;;5093955;28;20474;-73
2021/01/03 03:21:19;;;;;;;32.23;13.83;;;;;;;;;;5093735;28;20923;-73
2021/01/03 03:23:45;;;;;;;33.83;14.30;;;;;;;;;;5093554;28;20440;-73
2021/01/03 03:26:11;;;;;;;31.20;14.23;;;;;;;;;;5095734;28;20393;-73
2021/01/03 03:28:37;;;;;;;29.47;14.70;;;;;;;;;;5077466;28;20501;-73
2021/01/03 03:31:03;;;;;;;38.33;13.70;;;;;;;;;;5075400;28;20480;-73
2021/01/03 03:33:29;;;;;;;28.00;14.03;;;;;;;;;;5073810;28;20453;-73
2021/01/03 03:35:55;;;;;;;31.03;12.27;;;;;;;;;;5075822;28;20500;-73
2021/01/03 03:38:21;;;;;;;32.83;12.43;;;;;;;;;;5074257;28;20796;-73
2021/01/03 03:40:47;;;;;;;28.40;13.47;;;;;;;;;;5075178;28;20762;-73
2021/01/03 03:43:13;;;;;;;35.27;15.37;;;;;;;;;;5086151;28;20448;-73
2021/01/03 03:45:39;;;;;;;38.50;14.90;;;;;;;;;;5093934;28;20468;-73
2021/01/03 03:48:06;;;;;;;33.47;15.00;;;;;;;;;;5093147;28;20514;-73
2021/01/03 03:50:32;;;;;;;30.33;13.37;;;;;;;;;;5095221;28;20493;-73
2021/01/03 03:52:58;;;;;;;26.47;11.67;;;;;;;;;;5083377;28;20456;-73
2021/01/03 03:55:24;;;;;;;29.70;13.27;;;;;;;;;;5074886;28;20398;-73
2021/01/03 03:57:50;;;;;;;31.47;13.47;;;;;;;;;;5073991;28;20474;-73
2021/01/03 04:00:18;;;;;;;27.23;10.60;;;;;;;;;;5075027;28;20755;-73
2021/01/03 04:02:45;;;;;;;36.73;13.17;;;;;;;;;;5073585;28;20429;-73
2021/01/03 04:05:13;;;;;;;27.80;12.27;;;;;;;;;;5074603;28;20460;-73
2021/01/03 04:07:39;;;;;;;34.00;13.97;;;;;;;;;;5079866;28;20474;-73
2021/01/03 04:10:06;;;;;;;30.37;13.07;;;;;;;;;;5094838;28;20449;-73
2021/01/03 04:12:32;;;;;;;34.60;15.20;;;;;;;;;;5087503;28;20940;-73
2021/01/03 04:14:58;;;;;;;35.10;14.77;;;;;;;;;;5073505;28;20429;-73
2021/01/03 04:17:25;;;;;;;22.53;11.60;;;;;;;;;;5077245;28;20503;-73
2021/01/03 04:19:51;;;;;;;30.20;13.30;;;;;;;;;;5094727;28;20899;-73
2021/01/03 04:22:17;;;;;;;30.53;12.80;;;;;;;;;;5093013;28;20504;-73
2021/01/03 04:24:43;;;;;;;35.37;14.00;;;;;;;;;;5093176;28;20542;-73
2021/01/03 04:27:09;;;;;;;30.60;13.00;;;;;;;;;;5090531;28;20485;-73
2021/01/03 04:29:36;;;;;;;37.87;13.80;;;;;;;;;;5094765;28;20396;-73
2021/01/03 04:32:07;;;;;;;30.80;12.07;;;;;;;;;;5092524;28;20397;-73
2021/01/03 04:34:33;;;;;;;31.33;13.83;;;;;;;;;;5075832;28;20964;-73
2021/01/03 04:37:00;;;;;;;30.07;12.77;;;;;;;;;;5073301;28;20401;-73
2021/01/03 04:39:27;;;;;;;39.50;15.30;;;;;;;;;;5092329;28;20420;-73
2021/01/03 04:41:58;;;;;;;37.67;13.53;;;;;;;;;;5094545;28;20761;-73
2021/01/03 04:44:31;;;;;;;24.90;10.70;;;;;;;;;;5088873;28;20992;-73
2021/01/03 04:46:59;;;;;;;36.70;13.77;;;;;;;;;;5074241;28;20401;-73
2021/01/03 04:49:32;;;;;;;31.43;13.87;;;;;;;;;;5092917;28;20416;-73
2021/01/03 04:52:17;;;;;;;34.77;14.10;;;;;;;;;;5094087;28;20479;-73
2021/01/03 04:54:51;;;;;;;29.93;11.13;;;;;;;;;;5080372;22;20520;-71
2021/01/03 04:57:19;;;;;;;30.07;13.17;;;;;;;;;;5032562;28;20400;-72
2021/01/03 04:59:49;;;;;;;28.03;12.10;;;;;;;;;;5032380;28;20433;-71
2021/01/03 05:02:33;;;;;;;27.73;12.63;;;;;;;;;;5032758;28;20418;-72
2021/01/03 05:05:08;;;;;;;21.70;11.30;;;;;;;;;;5033196;28;20458;-72
2021/01/03 05:07:42;;;;;;;28.57;11.33;;;;;;;;;;5029477;28;20458;-72
2021/01/03 05:10:11;;;;;;;26.60;11.77;;;;;;;;;;5013782;28;20396;-72
2021/01/03 05:12:44;;;;;;;40.20;12.37;;;;;;;;;;5013774;28;20518;-72
2021/01/03 05:15:21;;;;;;;23.30;11.97;;;;;;;;;;5013455;28;20427;-72
2021/01/03 05:17:47;;;;;;;24.10;11.37;;;;;;;;;;5013362;28;20462;-72
2021/01/03 05:20:13;;;;;;;30.80;11.67;;;;;;;;;;5013691;28;20412;-71
2021/01/03 05:22:43;;;;;;;30.43;12.37;;;;;;;;;;5013670;28;20439;-71
2021/01/03 05:25:10;;;;;;;30.40;12.40;;;;;;;;;;5013340;28;20459;-72
2021/01/03 05:27:36;;;;;;;34.97;13.23;;;;;;;;;;5025333;28;20420;-72
2021/01/03 05:30:20;;;;;;;23.47;13.00;;;;;;;;;;5033180;28;20406;-71
2021/01/03 05:32:46;;;;;;;30.73;13.00;;;;;;;;;;5028683;28;20474;-72
2021/01/03 05:35:23;;;;;;;31.40;11.23;;;;;;;;;;5015948;28;20461;-72
2021/01/03 05:37:51;;;;;;;36.53;13.00;;;;;;;;;;5017272;28;20426;-73
2021/01/03 05:40:25;;;;;;;31.20;12.67;;;;;;;;;;5033391;28;20464;-71
2021/01/03 05:42:55;;;;;;;31.33;11.53;;;;;;;;;;5030078;28;20446;-71
2021/01/03 05:45:27;;;;;;;31.47;12.30;;;;;;;;;;5033419;28;20450;-71
2021/01/03 05:47:56;;;;;;;34.40;14.17;;;;;;;;;;5031640;28;20450;-71
2021/01/03 05:50:25;;;;;;;33.57;11.60;;;;;;;;;;5033109;28;20403;-71
2021/01/03 05:53:09;;;;;;;26.03;11.30;;;;;;;;;;5031875;28;20423;-71
2021/01/03 05:55:36;;;;;;;34.47;13.87;;;;;;;;;;5032826;28;20418;-71
2021/01/03 05:58:12;;;;;;;32.53;15.07;;;;;;;;;;5031868;28;20468;-71
2021/01/03 06:00:40;;;;;;;34.37;15.63;;;;;;;;;;5032639;28;20396;-71
2021/01/03 06:03:25;;;;;;;33.53;13.53;;;;;;;;;;5031647;28;20415;-72
2021/01/03 06:05:52;;;;;;;36.03;13.47;;;;;;;;;;5031689;28;20455;-71
2021/01/03 06:08:21;;;;;;;25.67;11.97;;;;;;;;;;5031538;28;20560;-71
2021/01/03 06:10:47;;;;;;;31.33;14.97;;;;;;;;;;5032889;28;20422;-71
2021/01/03 06:13:19;;;;;;;25.33;12.70;;;;;;;;;;5031379;28;20415;-71
2021/01/03 06:15:49;;;;;;;30.30;11.83;;;;;;;;;;5032850;28;20422;-71
2021/01/03 06:18:38;;;;;;;32.23;14.33;;;;;;;;;;5031400;28;20450;-71
2021/01/03 06:21:04;;;;;;;32.97;12.30;;;;;;;;;;5028375;28;20521;-71
2021/01/03 06:23:34;;;;;;;26.00;12.97;;;;;;;;;;5031464;28;20443;-71
2021/01/03 06:26:05;;;;;;;33.47;14.50;;;;;;;;;;5032385;28;20450;-71
2021/01/03 06:28:39;;;;;;;33.30;14.30;;;;;;;;;;5032089;28;20422;-71
2021/01/03 06:31:05;;;;;;;26.57;13.03;;;;;;;;;;5031114;28;20412;-71
2021/01/03 06:33:54;;;;;;;34.47;14.40;;;;;;;;;;5030315;28;20525;-71
2021/01/03 06:36:23;;;;;;;32.50;13.30;;;;;;;;;;5026539;28;20467;-71
2021/01/03 06:38:55;;;;;;;34.23;12.40;;;;;;;;;;5034158;28;20509;-71
2021/01/03 06:41:31;;;;;;;29.73;12.40;;;;;;;;;;5036318;28;20392;-71
2021/01/03 06:44:16;;;;;;;40.83;16.00;;;;;;;;;;5034799;28;20814;-71
2021/01/03 06:47:00;;;;;;;33.13;13.90;;;;;;;;;;5036232;28;20491;-71
2021/01/03 06:49:35;;;;;;;28.57;13.53;;;;;;;;;;5035107;28;20422;-71
2021/01/03 06:52:20;;;;;;;27.83;12.20;;;;;;;;;;5036042;28;20398;-71
2021/01/03 06:54:49;;;;;;;34.33;14.80;;;;;;;;;;5034549;28;20473;-71
2021/01/03 06:57:18;;;;;;;32.60;14.03;;;;;;;;;;5036025;28;20414;-71
2021/01/03 06:59:50;;;;;;;34.20;12.27;;;;;;;;;;5034599;28;20430;-71
2021/01/03 07:02:17;;;;;;;34.10;14.47;;;;;;;;;;5035825;28;20417;-71
2021/01/03 07:04:43;;;;;;;25.10;11.73;;;;;;;;;;5034467;28;20463;-71
2021/01/03 07:07:15;;;;;;;36.50;15.87;;;;;;;;;;5035666;28;20421;-71
2021/01/03 07:09:56;;;;;;;28.30;12.27;;;;;;;;;;5034845;28;20427;-71
2021/01/03 07:12:41;;;;;;;35.50;13.17;;;;;;;;;;5034436;28;20422;-71
2021/01/03 07:15:09;;;;;;;34.37;15.17;;;;;;;;;;5034317;28;20533;-71
2021/01/03 07:17:54;;;;;;;29.53;13.23;;;;;;;;;;5035624;28;20403;-71
2021/01/03 07:20:30;;;;;;;26.80;12.93;;;;;;;;;;5034648;28;20430;-71
2021/01/03 07:23:03;;;;;;;31.30;14.13;;;;;;;;;;5035234;28;20482;-71
2021/01/03 07:25:30;;;;;;;26.60;13.07;;;;;;;;;;5034436;28;20557;-71
2021/01/03 07:28:07;;;;;;;37.90;12.93;;;;;;;;;;5035235;28;20411;-71
2021/01/03 07:30:39;;;;;;;33.10;13.23;;;;;;;;;;5034796;28;20453;-72
2021/01/03 07:33:11;;;;;;;27.00;10.33;;;;;;;;;;5035376;28;20478;-71
2021/01/03 07:35:39;;;;;;;28.30;11.60;;;;;;;;;;5033602;28;21005;-72
2021/01/03 07:38:21;;;;;;;26.47;13.17;;;;;;;;;;5030040;28;20891;-71
2021/01/03 07:40:55;;;;;;;27.07;12.10;;;;;;;;;;5034931;28;20441;-72
2021/01/03 07:43:22;;;;;;;27.60;12.67;;;;;;;;;;5034161;28;20779;-73
2021/01/03 07:45:49;;;;;;;30.73;11.10;;;;;;;;;;5033910;28;20486;-72
2021/01/03 07:48:32;;;;;;;31.20;12.40;;;;;;;;;;5033926;28;20403;-72
2021/01/03 07:50:58;;;;;;;33.43;14.00;;;;;;;;;;5014821;28;20893;-71
2021/01/03 07:53:34;;;;;;;30.07;14.20;;;;;;;;;;5015054;28;20455;-72
2021/01/03 07:56:35;;;;;;;22.30;11.43;;;;;;;;;;5034980;28;20391;-71
2021/01/03 07:59:01;;;;;;;21.33;12.00;;;;;;;;;;5000256;28;20436;-72
2021/01/03 08:01:33;;;;;;;25.37;12.20;;;;;;;;;;5006521;28;20412;-71
2021/01/03 08:04:08;;;;;;;36.93;13.63;;;;;;;;;;5031084;28;20555;-71
2021/01/03 08:06:34;;;;;;;31.03;12.93;;;;;;;;;;5034953;28;20399;-71
2021/01/03 08:09:01;;;;;;;22.63;9.90;;;;;;;;;;5033336;28;20492;-72
2021/01/03 08:11:32;;;;;;;26.63;11.30;;;;;;;;;;5034605;28;20525;-71
2021/01/03 08:14:00;;;;;;;26.03;14.50;;;;;;;;;;5033449;28;20453;-72
2021/01/03 08:16:28;;;;;;;29.07;13.13;;;;;;;;;;5034271;28;20490;-71
2021/01/03 08:18:56;;;;;;;21.47;11.13;;;;;;;;;;5031661;28;20914;-72
2021/01/03 08:21:22;;;;;;;27.17;13.23;;;;;;;;;;5034354;28;20406;-71
2021/01/03 08:23:48;;;;;;;25.30;12.87;;;;;;;;;;5032877;28;20441;-72
2021/01/03 08:26:14;;;;;;;26.80;11.83;;;;;;;;;;5034312;28;20485;-71
2021/01/03 08:29:03;;;;;;;34.17;13.10;;;;;;;;;;5032924;28;20532;-72
2021/01/03 08:31:30;;;;;;;25.67;11.60;;;;;;;;;;5030933;28;20765;-71
2021/01/03 08:33:58;;;;;;;28.97;15.50;;;;;;;;;;5029843;28;20445;-72
2021/01/03 08:36:24;;;;;;;27.93;10.27;;;;;;;;;;5032352;28;20918;-72
2021/01/03 08:38:51;;;;;;;34.87;14.10;;;;;;;;;;5031867;28;20518;-72
2021/01/03 08:41:20;;;;;;;28.37;12.10;;;;;;;;;;5033608;28;20494;-73
2021/01/03 08:43:47;;;;;;;36.33;14.73;;;;;;;;;;5031735;28;20430;-71
2021/01/03 08:46:17;;;;;;;34.43;13.50;;;;;;;;;;5033411;28;20455;-71
2021/01/03 08:48:44;;;;;;;31.27;12.40;;;;;;;;;;5033062;28;20430;-70
2021/01/03 08:51:12;;;;;;;30.00;12.00;;;;;;;;;;5033344;28;20890;-69
2021/01/03 08:53:39;;;;;;;26.20;13.03;;;;;;;;;;5031585;28;20462;-74
2021/01/03 08:56:23;;;;;;;32.33;13.27;;;;;;;;;;5032648;28;20424;-70
2021/01/03 08:58:49;;;;;;;32.57;13.03;;;;;;;;;;5031221;28;20502;-70
2021/01/03 09:01:22;;;;;;;26.83;12.47;;;;;;;;;;5032664;28;20494;-70
2021/01/03 09:03:49;;;;;;;26.73;13.90;;;;;;;;;;5032024;28;20472;-70
2021/01/03 09:06:15;;;;;;;37.17;12.77;;;;;;;;;;5033633;28;20455;-70
2021/01/03 09:08:42;;;;;;;31.50;11.40;;;;;;;;;;5032346;28;20442;-70
2021/01/03 09:11:14;;;;;;;24.27;12.30;;;;;;;;;;5028954;28;20467;-70
2021/01/03 09:13:51;;;;;;;22.97;12.60;;;;;;;;;;5026189;28;20439;-69
2021/01/03 09:16:26;;;;;;;31.27;14.10;;;;;;;;;;5017929;28;20426;-69
2021/01/03 09:18:55;;;;;;;26.67;10.73;;;;;;;;;;5032152;28;20414;-69
2021/01/03 09:21:21;;;;;;;28.40;12.43;;;;;;;;;;5031177;28;20978;-69
2021/01/03 09:23:49;;;;;;;23.90;11.90;;;;;;;;;;5031252;28;20438;-69
2021/01/03 09:26:15;;;;;;;32.90;12.83;;;;;;;;;;5030747;28;20469;-69
2021/01/03 09:28:42;;;;;;;32.17;12.23;;;;;;;;;;5031952;28;20427;-70
2021/01/03 09:31:25;;;;;;;23.57;11.63;;;;;;;;;;5032648;28;20866;-70
2021/01/03 09:33:53;;;;;;;27.90;11.90;;;;;;;;;;5032152;28;20513;-71
2021/01/03 09:36:25;;;;;;;23.33;10.77;;;;;;;;;;5032994;28;20400;-70
2021/01/03 09:39:14;;;;;;;30.77;11.50;;;;;;;;;;5030719;28;20481;-70
2021/01/03 09:41:59;;;;;;;33.83;13.07;;;;;;;;;;5013010;28;20486;-70
2021/01/03 09:44:31;;;;;;;29.73;12.37;;;;;;;;;;5016947;28;20470;-70
2021/01/03 09:46:59;;;;;;;21.43;12.17;;;;;;;;;;5032765;28;20410;-70
2021/01/03 09:49:25;;;;;;;26.77;12.43;;;;;;;;;;5031813;28;20410;-70
2021/01/03 09:51:54;;;;;;;27.63;12.63;;;;;;;;;;5033057;28;20413;-70
2021/01/03 09:54:21;;;;;;;22.30;9.30;;;;;;;;;;5030597;28;20529;-70
2021/01/03 09:56:50;;;;;;;18.73;10.00;;;;;;;;;;5032631;28;20418;-69
2021/01/03 09:59:17;;;;;;;20.87;10.43;;;;;;;;;;5031805;28;20434;-70
2021/01/03 10:01:44;;;;;;;22.73;11.43;;;;;;;;;;5031451;28;20426;-70
2021/01/03 10:04:16;;;;;;;27.30;11.40;;;;;;;;;;5031597;28;20426;-69
2021/01/03 10:06:43;;;;;;;20.50;10.30;;;;;;;;;;5032440;28;20884;-69
2021/01/03 10:09:14;;;;;;;27.80;10.63;;;;;;;;;;5030072;28;20493;-69
2021/01/03 10:11:40;;;;;;;27.60;10.73;;;;;;;;;;5032879;28;20395;-69
2021/01/03 10:14:09;;;;;;;26.73;10.87;;;;;;;;;;5034375;28;20929;-69
2021/01/03 10:16:37;;;;;;;29.40;13.17;;;;;;;;;;5036305;28;20458;-69
2021/01/03 10:19:17;;;;;;;35.33;12.60;;;;;;;;;;5035701;28;20438;-69
2021/01/03 10:21:43;;;;;;;27.43;12.00;;;;;;;;;;5016462;28;20474;-69
2021/01/03 10:24:23;;;;;;;24.30;13.33;;;;;;;;;;5016530;28;20756;-69
2021/01/03 10:27:04;;;;;;;22.90;12.73;;;;;;;;;;5036205;28;20411;-69
2021/01/03 10:29:31;;;;;;;29.60;10.43;;;;;;;;;;5035451;28;20438;-69
2021/01/03 10:31:58;;;;;;;28.67;11.30;;;;;;;;;;5036717;28;20883;-69
2021/01/03 10:34:24;;;;;;;20.73;9.40;;;;;;;;;;5033167;28;20452;-69
2021/01/03 10:36:52;;;;;;;24.20;10.60;;;;;;;;;;5036751;28;20421;-70
2021/01/03 10:39:18;;;;;;;36.67;13.20;;;;;;;;;;5035059;28;20402;-70
2021/01/03 10:41:46;;;;;;;31.30;12.60;;;;;;;;;;5036384;28;20430;-70
2021/01/03 10:44:12;;;;;;;32.50;12.70;;;;;;;;;;5034899;28;20789;-70
2021/01/03 10:46:39;;;;;;;35.23;11.70;;;;;;;;;;5035859;28;20419;-69
2021/01/03 10:49:05;;;;;;;20.83;10.40;;;;;;;;;;5036472;28;20399;-69
2021/01/03 10:51:31;;;;;;;20.40;10.53;;;;;;;;;;5034992;28;20779;-69
2021/01/03 10:53:57;;;;;;;27.93;12.53;;;;;;;;;;5066047;22;20483;-66
2021/01/03 10:56:24;;;;;;;16.73;9.30;;;;;;;;;;5075207;28;20431;-67
2021/01/03 10:58:50;;;;;;;28.67;10.30;;;;;;;;;;5076148;28;20876;-67
2021/01/03 11:01:16;;;;;;;25.80;11.87;;;;;;;;;;5071610;28;20413;-67
2021/01/03 11:03:42;;;;;;;19.20;8.80;;;;;;;;;;5081875;28;20398;-67
2021/01/03 11:06:08;;;;;;;23.03;11.60;;;;;;;;;;5078001;28;20463;-67
2021/01/03 11:08:35;;;;;;;20.57;10.00;;;;;;;;;;5073393;28;20448;-67
2021/01/03 11:11:01;;;;;;;25.33;10.47;;;;;;;;;;5060691;28;20429;-67
2021/01/03 11:13:27;;;;;;;33.97;15.87;;;;;;;;;;5055158;28;20397;-67
2021/01/03 11:15:53;;;;;;;32.10;11.37;;;;;;;;;;5061739;28;20426;-66
2021/01/03 11:18:19;;;;;;;19.63;10.23;;;;;;;;;;5055207;28;20440;-66
2021/01/03 11:20:45;;;;;;;23.77;10.83;;;;;;;;;;5069269;28;20425;-66
2021/01/03 11:23:11;;;;;;;21.57;10.70;;;;;;;;;;5074767;28;20440;-66
2021/01/03 11:25:37;;;;;;;20.10;11.10;;;;;;;;;;5064197;28;20466;-66
2021/01/03 11:28:03;;;;;;;20.50;10.90;;;;;;;;;;5055049;28;20433;-67
2021/01/03 11:30:29;;;;;;;22.10;11.83;;;;;;;;;;5059709;28;20416;-67
2021/01/03 11:32:55;;;;;;;27.70;12.77;;;;;;;;;;5074983;28;20406;-67
2021/01/03 11:35:21;;;;;;;18.80;9.60;;;;;;;;;;5074203;28;20456;-67
2021/01/03 11:37:48;;;;;;;24.87;10.30;;;;;;;;;;5074768;28;20777;-67
2021/01/03 11:40:14;;;;;;;22.30;10.80;;;;;;;;;;5074063;28;20535;-67
2021/01/03 11:42:40;;;;;;;18.73;9.70;;;;;;;;;;5074441;28;20425;-66
2021/01/03 11:45:08;;;;;;;22.43;12.37;;;;;;;;;;5073823;28;20495;-66
2021/01/03 11:47:34;;;;;;;24.87;10.20;;;;;;;;;;5054998;28;20399;-66
2021/01/03 11:50:00;;;;;;;21.47;9.60;;;;;;;;;;5054759;28;20394;-67
2021/01/03 11:52:27;;;;;;;18.47;9.70;;;;;;;;;;5073829;28;20429;-66
2021/01/03 11:54:53;;;;;;;21.00;10.77;;;;;;;;;;5074394;28;20441;-66
2021/01/03 11:57:19;;;;;;;20.07;9.80;;;;;;;;;;5073784;28;20436;-66
2021/01/03 11:59:45;;;;;;;20.83;10.27;;;;;;;;;;5073839;28;20917;-66
2021/01/03 12:02:12;;;;;;;20.47;9.20;;;;;;;;;;5073618;28;20440;-66
2021/01/03 12:04:38;;;;;;;20.60;10.30;;;;;;;;;;5074640;28;20457;-66
2021/01/03 12:07:06;;;;;;;24.73;11.50;;;;;;;;;;5073618;28;20435;-66
2021/01/03 12:09:32;;;;;;;29.90;10.20;;;;;;;;;;5074801;28;20401;-66
2021/01/03 12:12:03;;;;;;;20.50;11.07;;;;;;;;;;5074056;28;20464;-66
2021/01/03 12:14:29;;;;;;;17.20;10.00;;;;;;;;;;5075003;28;20483;-66
2021/01/03 12:16:56;;;;;;;23.53;9.80;;;;;;;;;;5073360;28;20441;-66
2021/01/03 12:19:23;;;;;;;18.40;8.43;;;;;;;;;;5074368;28;20441;-66
2021/01/03 12:21:49;;;;;;;26.53;10.17;;;;;;;;;;5070897;28;20515;-66
2021/01/03 12:24:15;;;;;;;18.60;9.27;;;;;;;;;;5071740;28;20552;-66
2021/01/03 12:26:42;;;;;;;16.43;8.90;;;;;;;;;;5072688;28;20516;-66
2021/01/03 12:29:09;;;;;;;19.30;9.63;;;;;;;;;;5074000;28;20808;-67
2021/01/03 12:31:35;;;;;;;16.47;10.27;;;;;;;;;;5064181;28;20422;-66
2021/01/03 12:34:02;;;;;;;13.80;7.90;;;;;;;;;;5073735;28;20925;-66
2021/01/03 12:36:28;;;;;;;14.40;7.87;;;;;;;;;;5071954;28;20441;-66
2021/01/03 12:38:54;;;;;;;15.57;8.03;;;;;;;;;;5073742;28;20405;-66
2021/01/03 12:41:20;;;;;;;20.50;10.00;;;;;;;;;;5072589;28;20423;-66
2021/01/03 12:43:47;;;;;;;18.17;10.87;;;;;;;;;;5075340;28;20448;-66
2021/01/03 12:46:13;;;;;;;19.10;8.90;;;;;;;;;;5071394;28;20457;-66
2021/01/03 12:48:40;;;;;;;15.47;7.83;;;;;;;;;;5073713;28;20398;-66
2021/01/03 12:51:06;;;;;;;12.93;7.63;;;;;;;;;;5072476;28;20503;-67
2021/01/03 12:53:32;;;;;;;22.27;9.23;;;;;;;;;;5073462;28;20480;-67
2021/01/03 12:55:58;;;;;;;22.43;8.37;;;;;;;;;;5072760;28;20465;-68
2021/01/03 12:58:24;;;;;;;16.97;8.80;;;;;;;;;;5073943;28;20401;-66
2021/01/03 13:00:50;;;;;;;15.10;8.07;;;;;;;;;;5072443;28;20404;-67
2021/01/03 13:03:16;;;;;;;15.00;7.93;;;;;;;;;;5072693;28;20490;-66
2021/01/03 13:05:42;;;;;;;15.67;8.03;;;;;;;;;;5072177;28;20551;-66
2021/01/03 13:08:08;;;;;;;13.70;7.97;;;;;;;;;;5072236;28;20427;-66
2021/01/03 13:10:34;;;;;;;16.13;7.67;;;;;;;;;;5073239;28;20480;-66
2021/01/03 13:13:00;;;;;;;14.07;6.10;;;;;;;;;;5072274;28;20811;-66
2021/01/03 13:15:26;;;;;;;14.80;6.87;;;;;;;;;;5073304;28;20421;-67
2021/01/03 13:17:52;;;;;;;10.53;6.17;;;;;;;;;;5072035;28;20956;-66
2021/01/03 13:20:19;;;;;;;13.93;7.30;;;;;;;;;;5073324;28;20412;-67
2021/01/03 13:22:45;;;;;;;14.77;8.20;;;;;;;;;;5071066;28;20428;-68
2021/01/03 13:25:11;;;;;;;16.93;7.83;;;;;;;;;;5072393;28;20460;-67
2021/01/03 13:27:37;;;;;;;13.80;7.17;;;;;;;;;;5072341;28;20424;-68
2021/01/03 13:30:04;;;;;;;15.27;8.77;;;;;;;;;;5073237;28;20424;-68
2021/01/03 13:32:30;;;;;;;14.67;7.63;;;;;;;;;;5071031;28;20436;-68
2021/01/03 13:34:56;;;;;;;13.90;6.70;;;;;;;;;;5073242;28;20421;-67
2021/01/03 13:37:22;;;;;;;15.30;7.43;;;;;;;;;;5071999;28;20792;-68
2021/01/03 13:39:48;;;;;;;10.63;6.40;;;;;;;;;;5073364;28;20412;-68
2021/01/03 13:42:14;;;;;;;16.00;7.70;;;;;;;;;;5071980;28;20508;-68
2021/01/03 13:44:40;;;;;;;13.47;8.10;;;;;;;;;;5067185;28;20469;-67
2021/01/03 13:47:06;;;;;;;17.13;7.83;;;;;;;;;;5074759;28;20486;-67
2021/01/03 13:49:32;;;;;;;15.17;8.43;;;;;;;;;;5080695;28;20873;-67
2021/01/03 13:51:58;;;;;;;14.80;8.87;;;;;;;;;;5079515;28;20433;-66
2021/01/03 13:54:24;;;;;;;14.00;8.53;;;;;;;;;;5078762;28;20472;-66
2021/01/03 13:56:51;;;;;;;17.57;8.20;;;;;;;;;;5079163;28;20429;-67
2021/01/03 13:59:17;;;;;;;17.87;9.07;;;;;;;;;;5077929;28;20429;-67
2021/01/03 14:01:44;;;;;;;17.30;8.80;;;;;;;;;;5078720;28;20428;-66
2021/01/03 14:04:10;;;;;;;12.90;7.00;;;;;;;;;;5079313;28;20480;-67
2021/01/03 14:06:36;;;;;;;19.53;7.50;;;;;;;;;;5078614;28;20408;-67
2021/01/03 14:09:04;;;;;;;11.80;7.70;;;;;;;;;;5079178;28;20405;-67
2021/01/03 14:11:30;;;;;;;12.30;6.77;;;;;;;;;;5073508;28;20456;-67
2021/01/03 14:13:57;;;;;;;16.70;8.73;;;;;;;;;;5079117;28;20424;-67
2021/01/03 14:16:24;;;;;;;15.17;7.60;;;;;;;;;;5079015;28;20412;-67
2021/01/03 14:18:50;;;;;;;21.73;8.43;;;;;;;;;;5079082;28;20855;-67
2021/01/03 14:21:21;;;;;;;24.00;9.63;;;;;;;;;;5079478;28;20407;-67
2021/01/03 14:23:47;;;;;;;18.47;9.60;;;;;;;;;;5078220;28;20807;-67
2021/01/03 14:26:13;;;;;;;19.27;8.97;;;;;;;;;;5078551;28;21103;-67
2021/01/03 14:28:39;;;;;;;16.60;7.60;;;;;;;;;;5077922;28;20928;-68